sensor_id;sensor_type;location;lat;lon;timestamp;P1;durP1;ratioP1;P2;durP2;ratioP2
46589;SDS011;32313;48.722;9.362;2023-07-02T00:01:44;5.73;;;5.20;;
46589;SDS011;32313;48.722;9.362;2023-07-02T00:04:11;5.80;;;5.23;;
46589;SDS011;32313;48.722;9.362;2023-07-02T00:06:41;5.93;;;5.23;;
46589;SDS011;32313;48.722;9.362;2023-07-02T00:09:07;6.00;;;5.40;;
46589;SDS011;32313;48.722;9.362;2023-07-02T00:11:35;5.53;;;5.00;;
46589;SDS011;32313;48.722;9.362;2023-07-02T00:14:00;6.13;;;5.20;;
46589;SDS011;32313;48.722;9.362;2023-07-02T00:16:26;5.33;;;4.83;;
46589;SDS011;32313;48.722;9.362;2023-07-02T00:18:52;6.03;;;5.40;;
46589;SDS011;32313;48.722;9.362;2023-07-02T00:21:18;5.90;;;5.40;;
46589;SDS011;32313;48.722;9.362;2023-07-02T00:23:45;6.00;;;5.33;;
46589;SDS011;32313;48.722;9.362;2023-07-02T00:26:11;5.13;;;4.73;;
46589;SDS011;32313;48.722;9.362;2023-07-02T00:28:37;6.03;;;5.53;;
46589;SDS011;32313;48.722;9.362;2023-07-02T00:31:02;5.70;;;5.00;;
46589;SDS011;32313;48.722;9.362;2023-07-02T00:33:29;6.77;;;5.90;;
46589;SDS011;32313;48.722;9.362;2023-07-02T00:35:56;7.27;;;6.30;;
46589;SDS011;32313;48.722;9.362;2023-07-02T00:38:23;6.00;;;5.40;;
46589;SDS011;32313;48.722;9.362;2023-07-02T00:40:48;7.70;;;6.17;;
46589;SDS011;32313;48.722;9.362;2023-07-02T00:43:14;5.93;;;5.40;;
46589;SDS011;32313;48.722;9.362;2023-07-02T00:45:40;6.53;;;6.03;;
46589;SDS011;32313;48.722;9.362;2023-07-02T00:48:06;10.50;;;6.03;;
46589;SDS011;32313;48.722;9.362;2023-07-02T00:50:31;6.03;;;5.53;;
46589;SDS011;32313;48.722;9.362;2023-07-02T00:52:57;6.97;;;6.27;;
46589;SDS011;32313;48.722;9.362;2023-07-02T00:55:24;7.53;;;6.83;;
46589;SDS011;32313;48.722;9.362;2023-07-02T00:57:50;8.17;;;7.10;;
46589;SDS011;32313;48.722;9.362;2023-07-02T01:00:15;7.67;;;7.00;;
46589;SDS011;32313;48.722;9.362;2023-07-02T01:02:42;6.90;;;6.23;;
46589;SDS011;32313;48.722;9.362;2023-07-02T01:05:18;7.00;;;6.40;;
46589;SDS011;32313;48.722;9.362;2023-07-02T01:07:46;7.10;;;6.40;;
46589;SDS011;32313;48.722;9.362;2023-07-02T01:10:12;7.20;;;6.60;;
46589;SDS011;32313;48.722;9.362;2023-07-02T01:12:38;6.47;;;5.93;;
46589;SDS011;32313;48.722;9.362;2023-07-02T01:15:05;7.53;;;6.83;;
46589;SDS011;32313;48.722;9.362;2023-07-02T01:17:32;6.77;;;6.20;;
46589;SDS011;32313;48.722;9.362;2023-07-02T01:20:06;7.27;;;6.67;;
46589;SDS011;32313;48.722;9.362;2023-07-02T01:22:34;7.53;;;6.40;;
46589;SDS011;32313;48.722;9.362;2023-07-02T01:25:01;6.83;;;6.23;;
46589;SDS011;32313;48.722;9.362;2023-07-02T01:27:30;6.87;;;6.17;;
46589;SDS011;32313;48.722;9.362;2023-07-02T01:29:56;6.63;;;5.97;;
46589;SDS011;32313;48.722;9.362;2023-07-02T01:32:22;7.57;;;6.20;;
46589;SDS011;32313;48.722;9.362;2023-07-02T01:34:49;6.40;;;5.90;;
46589;SDS011;32313;48.722;9.362;2023-07-02T01:37:18;7.07;;;6.47;;
46589;SDS011;32313;48.722;9.362;2023-07-02T01:39:44;7.77;;;7.07;;
46589;SDS011;32313;48.722;9.362;2023-07-02T01:42:11;6.87;;;6.27;;
46589;SDS011;32313;48.722;9.362;2023-07-02T01:44:41;6.77;;;6.03;;
46589;SDS011;32313;48.722;9.362;2023-07-02T01:47:08;6.90;;;6.30;;
46589;SDS011;32313;48.722;9.362;2023-07-02T01:49:34;7.03;;;6.40;;
46589;SDS011;32313;48.722;9.362;2023-07-02T01:52:01;6.80;;;6.30;;
46589;SDS011;32313;48.722;9.362;2023-07-02T01:54:27;8.07;;;7.37;;
46589;SDS011;32313;48.722;9.362;2023-07-02T01:56:54;7.10;;;6.50;;
46589;SDS011;32313;48.722;9.362;2023-07-02T01:59:20;6.97;;;6.30;;
46589;SDS011;32313;48.722;9.362;2023-07-02T02:01:46;7.83;;;7.07;;
46589;SDS011;32313;48.722;9.362;2023-07-02T02:04:12;8.33;;;7.53;;
46589;SDS011;32313;48.722;9.362;2023-07-02T02:06:38;8.33;;;7.60;;
46589;SDS011;32313;48.722;9.362;2023-07-02T02:09:05;8.37;;;7.23;;
46589;SDS011;32313;48.722;9.362;2023-07-02T02:11:32;8.33;;;7.50;;
46589;SDS011;32313;48.722;9.362;2023-07-02T02:13:59;7.57;;;6.87;;
46589;SDS011;32313;48.722;9.362;2023-07-02T02:16:28;7.73;;;7.03;;
46589;SDS011;32313;48.722;9.362;2023-07-02T02:18:54;8.00;;;7.30;;
46589;SDS011;32313;48.722;9.362;2023-07-02T02:21:20;7.87;;;6.97;;
46589;SDS011;32313;48.722;9.362;2023-07-02T02:23:46;7.30;;;6.73;;
46589;SDS011;32313;48.722;9.362;2023-07-02T02:26:13;7.30;;;6.70;;
46589;SDS011;32313;48.722;9.362;2023-07-02T02:28:39;8.80;;;8.00;;
46589;SDS011;32313;48.722;9.362;2023-07-02T02:31:06;8.40;;;7.53;;
46589;SDS011;32313;48.722;9.362;2023-07-02T02:33:32;7.33;;;6.80;;
46589;SDS011;32313;48.722;9.362;2023-07-02T02:35:59;7.60;;;7.00;;
46589;SDS011;32313;48.722;9.362;2023-07-02T02:38:25;8.73;;;7.87;;
46589;SDS011;32313;48.722;9.362;2023-07-02T02:40:51;7.87;;;7.07;;
46589;SDS011;32313;48.722;9.362;2023-07-02T02:43:19;8.77;;;7.90;;
46589;SDS011;32313;48.722;9.362;2023-07-02T02:45:46;8.93;;;7.90;;
46589;SDS011;32313;48.722;9.362;2023-07-02T02:48:12;8.20;;;7.50;;
46589;SDS011;32313;48.722;9.362;2023-07-02T02:50:38;9.27;;;7.97;;
46589;SDS011;32313;48.722;9.362;2023-07-02T02:53:06;7.63;;;6.93;;
46589;SDS011;32313;48.722;9.362;2023-07-02T02:55:33;7.77;;;7.07;;
46589;SDS011;32313;48.722;9.362;2023-07-02T02:57:58;8.50;;;7.63;;
46589;SDS011;32313;48.722;9.362;2023-07-02T03:00:24;9.77;;;7.50;;
46589;SDS011;32313;48.722;9.362;2023-07-02T03:02:50;8.23;;;7.47;;
46589;SDS011;32313;48.722;9.362;2023-07-02T03:05:16;7.60;;;7.00;;
46589;SDS011;32313;48.722;9.362;2023-07-02T03:07:42;8.10;;;6.67;;
46589;SDS011;32313;48.722;9.362;2023-07-02T03:10:08;8.40;;;7.03;;
46589;SDS011;32313;48.722;9.362;2023-07-02T03:12:34;8.57;;;7.77;;
46589;SDS011;32313;48.722;9.362;2023-07-02T03:15:00;9.47;;;7.33;;
46589;SDS011;32313;48.722;9.362;2023-07-02T03:17:26;8.03;;;6.80;;
46589;SDS011;32313;48.722;9.362;2023-07-02T03:19:52;7.67;;;6.93;;
46589;SDS011;32313;48.722;9.362;2023-07-02T03:22:17;7.83;;;7.03;;
46589;SDS011;32313;48.722;9.362;2023-07-02T03:24:43;7.83;;;7.23;;
46589;SDS011;32313;48.722;9.362;2023-07-02T03:27:09;7.40;;;6.80;;
46589;SDS011;32313;48.722;9.362;2023-07-02T03:29:35;7.93;;;7.23;;
46589;SDS011;32313;48.722;9.362;2023-07-02T03:32:01;7.40;;;6.60;;
46589;SDS011;32313;48.722;9.362;2023-07-02T03:34:27;7.03;;;6.40;;
46589;SDS011;32313;48.722;9.362;2023-07-02T03:36:53;7.60;;;6.93;;
46589;SDS011;32313;48.722;9.362;2023-07-02T03:39:18;7.90;;;6.93;;
46589;SDS011;32313;48.722;9.362;2023-07-02T03:41:44;8.10;;;7.03;;
46589;SDS011;32313;48.722;9.362;2023-07-02T03:44:10;9.13;;;7.07;;
46589;SDS011;32313;48.722;9.362;2023-07-02T03:46:36;7.50;;;6.80;;
46589;SDS011;32313;48.722;9.362;2023-07-02T03:49:02;6.77;;;6.20;;
46589;SDS011;32313;48.722;9.362;2023-07-02T03:51:29;6.37;;;5.77;;
46589;SDS011;32313;48.722;9.362;2023-07-02T03:53:58;6.23;;;5.17;;
46589;SDS011;32313;48.722;9.362;2023-07-02T03:56:24;6.00;;;5.40;;
46589;SDS011;32313;48.722;9.362;2023-07-02T03:58:50;6.23;;;4.80;;
46589;SDS011;32313;48.722;9.362;2023-07-02T04:01:15;6.20;;;5.60;;
46589;SDS011;32313;48.722;9.362;2023-07-02T04:03:53;6.20;;;5.57;;
46589;SDS011;32313;48.722;9.362;2023-07-02T04:06:20;8.30;;;5.80;;
46589;SDS011;32313;48.722;9.362;2023-07-02T04:08:46;11.37;;;5.60;;
46589;SDS011;32313;48.722;9.362;2023-07-02T04:11:11;5.80;;;5.30;;
46589;SDS011;32313;48.722;9.362;2023-07-02T04:13:38;9.50;;;6.47;;
46589;SDS011;32313;48.722;9.362;2023-07-02T04:16:04;6.50;;;5.90;;
46589;SDS011;32313;48.722;9.362;2023-07-02T04:18:30;6.93;;;5.70;;
46589;SDS011;32313;48.722;9.362;2023-07-02T04:20:57;7.10;;;6.07;;
46589;SDS011;32313;48.722;9.362;2023-07-02T04:23:23;7.40;;;5.73;;
46589;SDS011;32313;48.722;9.362;2023-07-02T04:25:50;8.03;;;6.17;;
46589;SDS011;32313;48.722;9.362;2023-07-02T04:28:15;7.37;;;6.63;;
46589;SDS011;32313;48.722;9.362;2023-07-02T04:30:41;7.30;;;6.50;;
46589;SDS011;32313;48.722;9.362;2023-07-02T04:33:07;7.00;;;6.10;;
46589;SDS011;32313;48.722;9.362;2023-07-02T04:35:33;7.30;;;6.70;;
46589;SDS011;32313;48.722;9.362;2023-07-02T04:37:59;8.47;;;6.87;;
46589;SDS011;32313;48.722;9.362;2023-07-02T04:40:28;8.00;;;6.60;;
46589;SDS011;32313;48.722;9.362;2023-07-02T04:42:54;6.60;;;6.00;;
46589;SDS011;32313;48.722;9.362;2023-07-02T04:45:23;7.73;;;6.93;;
46589;SDS011;32313;48.722;9.362;2023-07-02T04:47:50;8.93;;;6.27;;
46589;SDS011;32313;48.722;9.362;2023-07-02T04:50:16;7.57;;;6.80;;
46589;SDS011;32313;48.722;9.362;2023-07-02T04:52:42;7.80;;;6.93;;
46589;SDS011;32313;48.722;9.362;2023-07-02T04:55:08;7.83;;;6.47;;
46589;SDS011;32313;48.722;9.362;2023-07-02T04:57:34;8.07;;;6.97;;
46589;SDS011;32313;48.722;9.362;2023-07-02T05:00:00;6.73;;;6.13;;
46589;SDS011;32313;48.722;9.362;2023-07-02T05:02:26;7.57;;;6.97;;
46589;SDS011;32313;48.722;9.362;2023-07-02T05:04:51;7.47;;;6.77;;
46589;SDS011;32313;48.722;9.362;2023-07-02T05:07:17;7.73;;;6.93;;
46589;SDS011;32313;48.722;9.362;2023-07-02T05:09:43;9.10;;;7.60;;
46589;SDS011;32313;48.722;9.362;2023-07-02T05:12:09;9.27;;;6.70;;
46589;SDS011;32313;48.722;9.362;2023-07-02T05:14:35;7.73;;;6.73;;
46589;SDS011;32313;48.722;9.362;2023-07-02T05:17:00;8.23;;;6.50;;
46589;SDS011;32313;48.722;9.362;2023-07-02T05:19:26;7.27;;;6.43;;
46589;SDS011;32313;48.722;9.362;2023-07-02T05:21:52;7.60;;;6.73;;
46589;SDS011;32313;48.722;9.362;2023-07-02T05:24:18;9.73;;;6.83;;
46589;SDS011;32313;48.722;9.362;2023-07-02T05:26:43;7.93;;;6.30;;
46589;SDS011;32313;48.722;9.362;2023-07-02T05:29:09;5.90;;;5.30;;
46589;SDS011;32313;48.722;9.362;2023-07-02T05:31:35;6.90;;;5.97;;
46589;SDS011;32313;48.722;9.362;2023-07-02T05:34:01;6.50;;;5.70;;
46589;SDS011;32313;48.722;9.362;2023-07-02T05:36:26;7.73;;;5.93;;
46589;SDS011;32313;48.722;9.362;2023-07-02T05:38:52;6.63;;;5.33;;
46589;SDS011;32313;48.722;9.362;2023-07-02T05:41:21;7.70;;;5.73;;
46589;SDS011;32313;48.722;9.362;2023-07-02T05:43:46;6.60;;;5.33;;
46589;SDS011;32313;48.722;9.362;2023-07-02T05:46:12;8.70;;;5.63;;
46589;SDS011;32313;48.722;9.362;2023-07-02T05:48:39;6.73;;;4.80;;
46589;SDS011;32313;48.722;9.362;2023-07-02T05:51:08;6.67;;;5.40;;
46589;SDS011;32313;48.722;9.362;2023-07-02T05:53:34;6.67;;;4.93;;
46589;SDS011;32313;48.722;9.362;2023-07-02T05:56:00;7.83;;;5.20;;
46589;SDS011;32313;48.722;9.362;2023-07-02T05:58:25;5.87;;;4.40;;
46589;SDS011;32313;48.722;9.362;2023-07-02T06:00:51;7.83;;;4.83;;
46589;SDS011;32313;48.722;9.362;2023-07-02T06:03:17;5.50;;;5.00;;
46589;SDS011;32313;48.722;9.362;2023-07-02T06:05:49;6.87;;;5.07;;
46589;SDS011;32313;48.722;9.362;2023-07-02T06:08:15;7.33;;;5.40;;
46589;SDS011;32313;48.722;9.362;2023-07-02T06:10:42;7.10;;;5.60;;
46589;SDS011;32313;48.722;9.362;2023-07-02T06:13:09;7.13;;;5.97;;
46589;SDS011;32313;48.722;9.362;2023-07-02T06:15:34;8.23;;;6.00;;
46589;SDS011;32313;48.722;9.362;2023-07-02T06:18:00;9.93;;;7.03;;
46589;SDS011;32313;48.722;9.362;2023-07-02T06:20:26;10.70;;;7.97;;
46589;SDS011;32313;48.722;9.362;2023-07-02T06:22:51;12.67;;;7.83;;
46589;SDS011;32313;48.722;9.362;2023-07-02T06:25:17;11.90;;;7.60;;
46589;SDS011;32313;48.722;9.362;2023-07-02T06:27:43;10.30;;;6.70;;
46589;SDS011;32313;48.722;9.362;2023-07-02T06:30:09;10.30;;;7.00;;
46589;SDS011;32313;48.722;9.362;2023-07-02T06:32:34;9.73;;;7.57;;
46589;SDS011;32313;48.722;9.362;2023-07-02T06:35:00;11.67;;;7.40;;
46589;SDS011;32313;48.722;9.362;2023-07-02T06:37:26;14.97;;;7.50;;
46589;SDS011;32313;48.722;9.362;2023-07-02T06:39:51;10.60;;;7.10;;
46589;SDS011;32313;48.722;9.362;2023-07-02T06:42:17;10.60;;;7.37;;
46589;SDS011;32313;48.722;9.362;2023-07-02T06:44:43;9.77;;;7.00;;
46589;SDS011;32313;48.722;9.362;2023-07-02T06:47:09;11.13;;;7.77;;
46589;SDS011;32313;48.722;9.362;2023-07-02T06:49:35;8.63;;;6.73;;
46589;SDS011;32313;48.722;9.362;2023-07-02T06:52:01;11.73;;;7.93;;
46589;SDS011;32313;48.722;9.362;2023-07-02T06:54:27;10.07;;;8.07;;
46589;SDS011;32313;48.722;9.362;2023-07-02T06:56:53;12.87;;;8.10;;
46589;SDS011;32313;48.722;9.362;2023-07-02T06:59:22;10.80;;;8.10;;
46589;SDS011;32313;48.722;9.362;2023-07-02T07:01:49;12.13;;;8.73;;
46589;SDS011;32313;48.722;9.362;2023-07-02T07:04:15;13.67;;;9.07;;
46589;SDS011;32313;48.722;9.362;2023-07-02T07:06:41;13.43;;;9.30;;
46589;SDS011;32313;48.722;9.362;2023-07-02T07:09:07;14.40;;;10.00;;
46589;SDS011;32313;48.722;9.362;2023-07-02T07:11:33;12.80;;;10.23;;
46589;SDS011;32313;48.722;9.362;2023-07-02T07:13:59;16.43;;;10.30;;
46589;SDS011;32313;48.722;9.362;2023-07-02T07:16:25;17.07;;;10.07;;
46589;SDS011;32313;48.722;9.362;2023-07-02T07:18:51;17.10;;;10.37;;
46589;SDS011;32313;48.722;9.362;2023-07-02T07:21:17;15.77;;;10.43;;
46589;SDS011;32313;48.722;9.362;2023-07-02T07:23:42;13.77;;;10.13;;
46589;SDS011;32313;48.722;9.362;2023-07-02T07:26:08;14.20;;;10.00;;
46589;SDS011;32313;48.722;9.362;2023-07-02T07:28:34;18.67;;;10.90;;
46589;SDS011;32313;48.722;9.362;2023-07-02T07:31:00;14.27;;;10.23;;
46589;SDS011;32313;48.722;9.362;2023-07-02T07:33:26;13.90;;;9.73;;
46589;SDS011;32313;48.722;9.362;2023-07-02T07:35:52;16.33;;;10.67;;
46589;SDS011;32313;48.722;9.362;2023-07-02T07:38:18;12.97;;;10.00;;
46589;SDS011;32313;48.722;9.362;2023-07-02T07:40:44;13.83;;;10.70;;
46589;SDS011;32313;48.722;9.362;2023-07-02T07:43:09;15.67;;;10.70;;
46589;SDS011;32313;48.722;9.362;2023-07-02T07:45:35;17.83;;;11.23;;
46589;SDS011;32313;48.722;9.362;2023-07-02T07:48:01;16.77;;;11.13;;
46589;SDS011;32313;48.722;9.362;2023-07-02T07:50:27;17.97;;;11.43;;
46589;SDS011;32313;48.722;9.362;2023-07-02T07:52:53;16.13;;;12.07;;
46589;SDS011;32313;48.722;9.362;2023-07-02T07:55:19;14.83;;;11.70;;
46589;SDS011;32313;48.722;9.362;2023-07-02T07:57:44;18.17;;;12.07;;
46589;SDS011;32313;48.722;9.362;2023-07-02T08:00:10;16.30;;;11.70;;
46589;SDS011;32313;48.722;9.362;2023-07-02T08:02:42;15.77;;;11.87;;
46589;SDS011;32313;48.722;9.362;2023-07-02T08:05:08;18.73;;;12.83;;
46589;SDS011;32313;48.722;9.362;2023-07-02T08:07:34;18.77;;;12.60;;
46589;SDS011;32313;48.722;9.362;2023-07-02T08:10:00;17.73;;;12.67;;
46589;SDS011;32313;48.722;9.362;2023-07-02T08:12:27;18.73;;;13.33;;
46589;SDS011;32313;48.722;9.362;2023-07-02T08:14:54;17.27;;;13.03;;
46589;SDS011;32313;48.722;9.362;2023-07-02T08:17:20;19.10;;;13.23;;
46589;SDS011;32313;48.722;9.362;2023-07-02T08:19:46;17.90;;;13.77;;
46589;SDS011;32313;48.722;9.362;2023-07-02T08:22:12;16.57;;;13.10;;
46589;SDS011;32313;48.722;9.362;2023-07-02T08:24:38;16.20;;;12.43;;
46589;SDS011;32313;48.722;9.362;2023-07-02T08:27:04;21.80;;;13.17;;
46589;SDS011;32313;48.722;9.362;2023-07-02T08:29:30;21.70;;;12.77;;
46589;SDS011;32313;48.722;9.362;2023-07-02T08:31:56;19.97;;;13.83;;
46589;SDS011;32313;48.722;9.362;2023-07-02T08:34:22;15.30;;;12.50;;
46589;SDS011;32313;48.722;9.362;2023-07-02T08:36:47;15.63;;;12.87;;
46589;SDS011;32313;48.722;9.362;2023-07-02T08:39:14;18.20;;;13.03;;
46589;SDS011;32313;48.722;9.362;2023-07-02T08:41:46;22.10;;;13.40;;
46589;SDS011;32313;48.722;9.362;2023-07-02T08:44:13;17.23;;;13.10;;
46589;SDS011;32313;48.722;9.362;2023-07-02T08:46:40;18.17;;;13.17;;
46589;SDS011;32313;48.722;9.362;2023-07-02T08:49:07;17.37;;;12.80;;
46589;SDS011;32313;48.722;9.362;2023-07-02T08:51:34;18.33;;;13.33;;
46589;SDS011;32313;48.722;9.362;2023-07-02T08:54:03;18.33;;;13.27;;
46589;SDS011;32313;48.722;9.362;2023-07-02T08:56:29;20.03;;;13.40;;
46589;SDS011;32313;48.722;9.362;2023-07-02T08:58:55;18.23;;;12.23;;
46589;SDS011;32313;48.722;9.362;2023-07-02T09:01:21;16.70;;;12.50;;
46589;SDS011;32313;48.722;9.362;2023-07-02T09:03:47;16.53;;;13.07;;
46589;SDS011;32313;48.722;9.362;2023-07-02T09:06:17;18.70;;;13.20;;
46589;SDS011;32313;48.722;9.362;2023-07-02T09:08:43;17.83;;;13.03;;
46589;SDS011;32313;48.722;9.362;2023-07-02T09:11:12;19.53;;;12.97;;
46589;SDS011;32313;48.722;9.362;2023-07-02T09:13:46;18.23;;;12.87;;
46589;SDS011;32313;48.722;9.362;2023-07-02T09:16:23;17.77;;;12.47;;
46589;SDS011;32313;48.722;9.362;2023-07-02T09:19:06;15.20;;;12.73;;
46589;SDS011;32313;48.722;9.362;2023-07-02T09:26:46;21.27;;;13.63;;
46589;SDS011;32313;48.722;9.362;2023-07-02T09:29:26;19.03;;;13.80;;
46589;SDS011;32313;48.722;9.362;2023-07-02T09:31:59;15.67;;;12.50;;
46589;SDS011;32313;48.722;9.362;2023-07-02T09:34:33;17.97;;;13.23;;
46589;SDS011;32313;48.722;9.362;2023-07-02T09:37:01;19.50;;;13.83;;
46589;SDS011;32313;48.722;9.362;2023-07-02T09:39:29;16.00;;;11.83;;
46589;SDS011;32313;48.722;9.362;2023-07-02T09:41:56;17.27;;;12.60;;
46589;SDS011;32313;48.722;9.362;2023-07-02T09:44:29;15.87;;;11.73;;
46589;SDS011;32313;48.722;9.362;2023-07-02T09:46:58;16.10;;;11.67;;
46589;SDS011;32313;48.722;9.362;2023-07-02T09:49:33;16.58;;;12.18;;
46589;SDS011;32313;48.722;9.362;2023-07-02T09:52:04;14.77;;;11.33;;
46589;SDS011;32313;48.722;9.362;2023-07-02T09:54:35;17.67;;;11.32;;
46589;SDS011;32313;48.722;9.362;2023-07-02T09:57:01;13.52;;;10.68;;
46589;SDS011;32313;48.722;9.362;2023-07-02T09:59:28;15.43;;;11.13;;
46589;SDS011;32313;48.722;9.362;2023-07-02T10:01:54;14.50;;;11.68;;
46589;SDS011;32313;48.722;9.362;2023-07-02T10:04:21;14.77;;;11.65;;
46589;SDS011;32313;48.722;9.362;2023-07-02T10:06:51;14.63;;;11.95;;
46589;SDS011;32313;48.722;9.362;2023-07-02T10:09:17;14.32;;;12.23;;
46589;SDS011;32313;48.722;9.362;2023-07-02T10:11:44;17.15;;;12.18;;
46589;SDS011;32313;48.722;9.362;2023-07-02T10:14:10;13.40;;;11.45;;
46589;SDS011;32313;48.722;9.362;2023-07-02T10:16:48;15.70;;;12.65;;
46589;SDS011;32313;48.722;9.362;2023-07-02T10:19:18;14.63;;;13.02;;
46589;SDS011;32313;48.722;9.362;2023-07-02T10:21:44;18.10;;;13.27;;
46589;SDS011;32313;48.722;9.362;2023-07-02T10:24:17;15.15;;;12.52;;
46589;SDS011;32313;48.722;9.362;2023-07-02T10:29:22;16.00;;;12.45;;
46589;SDS011;32313;48.722;9.362;2023-07-02T10:31:52;14.65;;;11.30;;
46589;SDS011;32313;48.722;9.362;2023-07-02T10:34:29;16.13;;;12.82;;
46589;SDS011;32313;48.722;9.362;2023-07-02T10:36:54;16.35;;;13.13;;
46589;SDS011;32313;48.722;9.362;2023-07-02T10:39:21;18.52;;;14.50;;
46589;SDS011;32313;48.722;9.362;2023-07-02T10:41:46;16.45;;;13.82;;
46589;SDS011;32313;48.722;9.362;2023-07-02T10:44:12;17.30;;;15.27;;
46589;SDS011;32313;48.722;9.362;2023-07-02T10:46:48;17.63;;;15.32;;
46589;SDS011;32313;48.722;9.362;2023-07-02T10:49:16;18.10;;;15.35;;
46589;SDS011;32313;48.722;9.362;2023-07-02T10:51:43;20.52;;;14.63;;
46589;SDS011;32313;48.722;9.362;2023-07-02T10:54:08;19.48;;;13.60;;
46589;SDS011;32313;48.722;9.362;2023-07-02T10:56:34;18.60;;;14.80;;
46589;SDS011;32313;48.722;9.362;2023-07-02T10:59:00;18.73;;;14.38;;
46589;SDS011;32313;48.722;9.362;2023-07-02T11:01:30;16.95;;;14.13;;
46589;SDS011;32313;48.722;9.362;2023-07-02T11:04:00;17.35;;;13.73;;
46589;SDS011;32313;48.722;9.362;2023-07-02T11:06:28;15.55;;;13.82;;
46589;SDS011;32313;48.722;9.362;2023-07-02T11:08:54;17.58;;;13.63;;
46589;SDS011;32313;48.722;9.362;2023-07-02T11:11:20;21.25;;;14.38;;
46589;SDS011;32313;48.722;9.362;2023-07-02T11:13:48;18.35;;;14.05;;
46589;SDS011;32313;48.722;9.362;2023-07-02T11:16:23;16.33;;;14.13;;
46589;SDS011;32313;48.722;9.362;2023-07-02T11:18:52;20.90;;;15.65;;
46589;SDS011;32313;48.722;9.362;2023-07-02T11:21:18;19.27;;;15.38;;
46589;SDS011;32313;48.722;9.362;2023-07-02T11:23:44;19.23;;;15.10;;
46589;SDS011;32313;48.722;9.362;2023-07-02T11:26:10;18.17;;;14.52;;
46589;SDS011;32313;48.722;9.362;2023-07-02T11:28:35;17.70;;;14.55;;
46589;SDS011;32313;48.722;9.362;2023-07-02T11:31:12;17.65;;;14.20;;
46589;SDS011;32313;48.722;9.362;2023-07-02T11:33:39;16.98;;;14.18;;
46589;SDS011;32313;48.722;9.362;2023-07-02T11:36:06;17.55;;;13.88;;
46589;SDS011;32313;48.722;9.362;2023-07-02T11:38:33;16.95;;;12.90;;
46589;SDS011;32313;48.722;9.362;2023-07-02T11:41:02;19.45;;;13.13;;
46589;SDS011;32313;48.722;9.362;2023-07-02T11:43:28;17.70;;;13.02;;
46589;SDS011;32313;48.722;9.362;2023-07-02T11:45:54;14.70;;;12.50;;
46589;SDS011;32313;48.722;9.362;2023-07-02T11:48:20;16.30;;;12.80;;
46589;SDS011;32313;48.722;9.362;2023-07-02T11:50:45;16.15;;;13.45;;
46589;SDS011;32313;48.722;9.362;2023-07-02T11:53:11;16.48;;;12.95;;
46589;SDS011;32313;48.722;9.362;2023-07-02T11:55:37;14.85;;;12.95;;
46589;SDS011;32313;48.722;9.362;2023-07-02T11:58:02;15.85;;;12.82;;
46589;SDS011;32313;48.722;9.362;2023-07-02T12:00:28;16.27;;;12.43;;
46589;SDS011;32313;48.722;9.362;2023-07-02T12:02:54;15.55;;;11.77;;
46589;SDS011;32313;48.722;9.362;2023-07-02T12:05:20;13.93;;;11.77;;
46589;SDS011;32313;48.722;9.362;2023-07-02T12:07:45;19.40;;;12.65;;
46589;SDS011;32313;48.722;9.362;2023-07-02T12:10:11;14.68;;;12.23;;
46589;SDS011;32313;48.722;9.362;2023-07-02T12:12:37;15.05;;;12.07;;
46589;SDS011;32313;48.722;9.362;2023-07-02T12:15:02;16.17;;;13.35;;
46589;SDS011;32313;48.722;9.362;2023-07-02T12:17:29;14.23;;;11.80;;
46589;SDS011;32313;48.722;9.362;2023-07-02T12:19:54;16.58;;;13.18;;
46589;SDS011;32313;48.722;9.362;2023-07-02T12:22:20;14.20;;;11.52;;
46589;SDS011;32313;48.722;9.362;2023-07-02T12:24:47;14.68;;;11.18;;
46589;SDS011;32313;48.722;9.362;2023-07-02T12:27:15;14.90;;;11.88;;
46589;SDS011;32313;48.722;9.362;2023-07-02T12:29:40;16.70;;;12.80;;
46589;SDS011;32313;48.722;9.362;2023-07-02T12:32:06;13.80;;;12.20;;
46589;SDS011;32313;48.722;9.362;2023-07-02T12:34:32;15.00;;;12.43;;
46589;SDS011;32313;48.722;9.362;2023-07-02T12:36:58;15.60;;;12.57;;
46589;SDS011;32313;48.722;9.362;2023-07-02T12:39:23;15.90;;;12.70;;
46589;SDS011;32313;48.722;9.362;2023-07-02T12:41:49;17.20;;;12.60;;
46589;SDS011;32313;48.722;9.362;2023-07-02T12:44:15;15.35;;;12.80;;
46589;SDS011;32313;48.722;9.362;2023-07-02T12:46:41;15.90;;;13.05;;
46589;SDS011;32313;48.722;9.362;2023-07-02T12:49:07;15.23;;;12.60;;
46589;SDS011;32313;48.722;9.362;2023-07-02T12:51:32;15.10;;;12.13;;
46589;SDS011;32313;48.722;9.362;2023-07-02T12:53:58;13.98;;;12.57;;
46589;SDS011;32313;48.722;9.362;2023-07-02T12:56:23;12.40;;;11.10;;
46589;SDS011;32313;48.722;9.362;2023-07-02T12:58:49;16.38;;;12.38;;
46589;SDS011;32313;48.722;9.362;2023-07-02T13:01:16;15.27;;;12.88;;
46589;SDS011;32313;48.722;9.362;2023-07-02T13:03:46;14.15;;;12.15;;
46589;SDS011;32313;48.722;9.362;2023-07-02T13:06:13;13.02;;;11.48;;
46589;SDS011;32313;48.722;9.362;2023-07-02T13:08:39;15.77;;;12.32;;
46589;SDS011;32313;48.722;9.362;2023-07-02T13:11:05;16.15;;;12.30;;
46589;SDS011;32313;48.722;9.362;2023-07-02T13:13:30;13.32;;;11.57;;
46589;SDS011;32313;48.722;9.362;2023-07-02T13:15:56;14.93;;;13.13;;
46589;SDS011;32313;48.722;9.362;2023-07-02T13:18:22;15.13;;;12.77;;
46589;SDS011;32313;48.722;9.362;2023-07-02T13:20:48;18.60;;;13.27;;
46589;SDS011;32313;48.722;9.362;2023-07-02T13:23:14;14.75;;;11.88;;
46589;SDS011;32313;48.722;9.362;2023-07-02T13:25:40;15.98;;;12.38;;
46589;SDS011;32313;48.722;9.362;2023-07-02T13:28:05;13.60;;;11.77;;
46589;SDS011;32313;48.722;9.362;2023-07-02T13:30:31;14.10;;;12.63;;
46589;SDS011;32313;48.722;9.362;2023-07-02T13:32:57;16.38;;;12.98;;
46589;SDS011;32313;48.722;9.362;2023-07-02T13:35:23;14.38;;;12.63;;
46589;SDS011;32313;48.722;9.362;2023-07-02T13:37:48;14.43;;;12.60;;
46589;SDS011;32313;48.722;9.362;2023-07-02T13:40:14;14.05;;;12.13;;
46589;SDS011;32313;48.722;9.362;2023-07-02T13:42:41;15.13;;;13.52;;
46589;SDS011;32313;48.722;9.362;2023-07-02T13:45:07;16.63;;;13.05;;
46589;SDS011;32313;48.722;9.362;2023-07-02T13:47:34;16.50;;;13.15;;
46589;SDS011;32313;48.722;9.362;2023-07-02T13:50:01;16.25;;;13.57;;
46589;SDS011;32313;48.722;9.362;2023-07-02T13:52:26;16.30;;;12.52;;
46589;SDS011;32313;48.722;9.362;2023-07-02T13:54:52;15.10;;;12.05;;
46589;SDS011;32313;48.722;9.362;2023-07-02T13:57:18;19.35;;;12.50;;
46589;SDS011;32313;48.722;9.362;2023-07-02T13:59:43;14.73;;;12.13;;
46589;SDS011;32313;48.722;9.362;2023-07-02T14:02:09;17.65;;;13.52;;
46589;SDS011;32313;48.722;9.362;2023-07-02T14:04:35;14.60;;;12.40;;
46589;SDS011;32313;48.722;9.362;2023-07-02T14:07:02;17.73;;;14.55;;
46589;SDS011;32313;48.722;9.362;2023-07-02T14:09:28;14.90;;;12.57;;
46589;SDS011;32313;48.722;9.362;2023-07-02T14:11:54;16.02;;;13.82;;
46589;SDS011;32313;48.722;9.362;2023-07-02T14:14:19;16.35;;;12.60;;
46589;SDS011;32313;48.722;9.362;2023-07-02T14:20:32;13.10;;;11.40;;
46589;SDS011;32313;48.722;9.362;2023-07-02T14:22:58;13.18;;;11.73;;
46589;SDS011;32313;48.722;9.362;2023-07-02T14:25:23;13.70;;;11.10;;
46589;SDS011;32313;48.722;9.362;2023-07-02T14:27:49;15.73;;;12.10;;
46589;SDS011;32313;48.722;9.362;2023-07-02T14:30:15;13.95;;;11.13;;
46589;SDS011;32313;48.722;9.362;2023-07-02T14:32:40;12.73;;;10.90;;
46589;SDS011;32313;48.722;9.362;2023-07-02T14:35:08;13.10;;;10.45;;
46589;SDS011;32313;48.722;9.362;2023-07-02T14:37:34;14.55;;;11.48;;
46589;SDS011;32313;48.722;9.362;2023-07-02T14:40:00;13.38;;;12.02;;
46589;SDS011;32313;48.722;9.362;2023-07-02T14:42:26;12.80;;;11.43;;